»·PEaware :: N2217L KRNM-KSNA

N2217L :: KRNM-KSNA

FLIGHT INFORMATION

Flight Status: Arrived
Operator: Privately registered:
United States
More flights under this callsign
Pilot: Anonymous 475 (475)
Aircraft: CESSNA 172 SKYHAWK
(C172)
More flights by this aircraft type
Origin: KRNM Ramona
United States
Destination: KSNA John Wayne-Orange Co
United States
More flights between these airports :: More routes between these airports
Route: ROBNN V208 OCN V23 SLI
File this flight plan on PilotEdge
Remarks: TEC route SANP3
Altitude:
(Current/Filed)
6,000ft
Speed:
(Current/Filed)
120kts
Departed: 07-Sep-20 11:35 AM
Arrived: 07-Sep-20 12:16 PM
Distance/Time
Traveled:
6739nm/0:41
Distance/Time
To Go:
Arrived

Flight Plot

Page will automatically refresh every two minutes.


Map Options




Map Legend


Flown Route
Filed Route
Departure Airport
Arrival Airport
Navaid (VOR, NDB)
Fix

Horizontal Profiles

Position Reports

Time Latitude Longitude Heading Altitude Ground
Speed
07-Sep-20 11:14 33.040583 -116.916897 112 1393ft 0kts
07-Sep-20 11:14 33.040583 -116.916897 112 1393ft 0kts
07-Sep-20 11:15 33.040583 -116.916897 112 1393ft 0kts
07-Sep-20 11:17 33.040583 -116.916897 112 1393ft 0kts
07-Sep-20 11:18 33.040583 -116.916897 112 1393ft 0kts
07-Sep-20 11:18 33.040583 -116.916897 112 1393ft 0kts
07-Sep-20 11:19 33.040583 -116.916897 112 1393ft 0kts
07-Sep-20 11:20 33.040583 -116.916897 112 1393ft 0kts
07-Sep-20 11:21 33.040583 -116.916897 112 1393ft 0kts
07-Sep-20 11:22 33.040583 -116.916897 112 1393ft 0kts
07-Sep-20 11:23 33.040583 -116.916897 112 1393ft 0kts
07-Sep-20 11:24 33.040583 -116.916897 112 1393ft 0kts
07-Sep-20 11:25 33.040583 -116.916897 112 1393ft 0kts
07-Sep-20 11:26 33.040583 -116.916897 112 1393ft 0kts
07-Sep-20 11:27 33.040583 -116.916897 112 1393ft 0kts
07-Sep-20 11:28 33.040583 -116.916897 112 1393ft 0kts
07-Sep-20 11:29 33.040583 -116.916897 112 1393ft 0kts
07-Sep-20 11:30 33.040151 -116.917028 99 1392ft 10kts
07-Sep-20 11:31 33.039507 -116.912791 101 1395ft 12kts
07-Sep-20 11:32 33.038779 -116.907901 100 1398ft 14kts
07-Sep-20 11:33 33.038487 -116.907462 191 1399ft 0kts
07-Sep-20 11:34 33.039826 -116.919906 279 1452ft 80kts
07-Sep-20 11:35 33.044702 -116.945404 282 1922ft 79kts
07-Sep-20 11:36 33.049025 -116.971085 280 2442ft 80kts
07-Sep-20 11:37 33.057943 -116.995177 297 2947ft 79kts
07-Sep-20 11:38 33.069670 -117.018143 297 3434ft 82kts
07-Sep-20 11:39 33.079848 -117.042094 293 3961ft 80kts
07-Sep-20 11:40 33.091554 -117.064455 334 4440ft 84kts
07-Sep-20 11:41 33.113248 -117.074036 344 4921ft 83kts
07-Sep-20 11:42 33.135675 -117.081844 340 5349ft 85kts
07-Sep-20 11:43 33.147057 -117.105651 287 5675ft 94kts
07-Sep-20 11:44 33.153773 -117.135898 287 5980ft 105kts
07-Sep-20 11:45 33.163885 -117.171421 285 5973ft 122kts
07-Sep-20 11:46 33.174520 -117.209787 288 5972ft 123kts
07-Sep-20 11:47 33.186616 -117.247699 291 5972ft 122kts
07-Sep-20 11:48 33.198746 -117.285412 288 5968ft 122kts
07-Sep-20 11:49 33.210445 -117.323424 289 5968ft 122kts
07-Sep-20 11:50 33.221126 -117.361647 286 5968ft 121kts
07-Sep-20 11:51 33.233290 -117.399171 289 5987ft 120kts
07-Sep-20 11:52 33.250005 -117.433739 307 6000ft 121kts
07-Sep-20 11:53 33.271155 -117.465378 309 6007ft 122kts
07-Sep-20 11:54 33.294147 -117.495315 312 6015ft 122kts
07-Sep-20 11:55 33.317449 -117.524795 311 6014ft 122kts
07-Sep-20 11:56 33.341700 -117.553504 316 6010ft 122kts
07-Sep-20 11:57 33.367179 -117.580638 316 6007ft 122kts
07-Sep-20 11:58 33.391642 -117.608872 317 6001ft 122kts
07-Sep-20 11:59 33.416912 -117.636209 315 5995ft 122kts
07-Sep-20 12:00 33.440772 -117.665279 312 6000ft 121kts
07-Sep-20 12:01 33.464408 -117.694378 314 6001ft 121kts
07-Sep-20 12:02 33.489836 -117.721156 317 6012ft 121kts
07-Sep-20 12:03 33.514734 -117.748729 313 6015ft 122kts
07-Sep-20 12:04 33.539713 -117.776455 320 6030ft 123kts
07-Sep-20 12:05 33.565727 -117.802987 316 6032ft 123kts
07-Sep-20 12:06 33.591460 -117.830319 315 6008ft 124kts
07-Sep-20 12:07 33.616675 -117.857546 314 4914ft 120kts
07-Sep-20 12:08 33.639972 -117.885505 314 3967ft 112kts
07-Sep-20 12:09 33.662804 -117.913009 315 4060ft 119kts
07-Sep-20 12:10 33.688612 -117.939176 351 3938ft 128kts
07-Sep-20 12:11 33.703856 -117.909633 92 2742ft 116kts
07-Sep-20 12:12 33.709986 -117.875767 43 1634ft 98kts
07-Sep-20 12:13 33.712147 -117.853538 162 1233ft 78kts
07-Sep-20 12:14 33.693023 -117.857890 209 447ft 70kts
07-Sep-20 12:15 33.677659 -117.867663 207 53ft 19kts
07-Sep-20 12:16 33.676045 -117.869974 299 55ft 0kts
07-Sep-20 12:17 33.676680 -117.870870 55 52ft 0kts
07-Sep-20 12:18 0.000408 0.013975 359 3ft 0kts
07-Sep-20 12:19 0.000408 0.013975 359 3ft 0kts

Navigation Log

Ident Type
Flight plan parsing failed, navigation log unavailable